Rechercher aéroport 
image banner adimage banner adimage banner ad
image banner ad

CA29 - Fontana Police

Situé à Fontana, United States

ICAO - CA29, IATA -

Données fournies par Airmate  

Information générale

Coordonnées: N34°6'6" W117°26'1"
Élévation : 1314 feet MSL.
Variation magnétique : 14° East
Voir autres Aéroports à California

Données opérationnelles

Special qualification required
Heure actuelle UTC:
Heure actuelle locale:
Météo à : KONT - Ontario Intl ( 16 km )
METAR: KONT 262253Z 26012KT 7SM FEW090 SCT150 SCT250 30/19 A2991 RMK AO2 SLP110 T03000189
TAF: KONT 261726Z 2618/2724 VRB04KT P6SM FEW080 BKN250 FM262100 26010G17KT P6SM SCT250 FM270400 VRB04KT P6SM BKN200 FM272100 26010KT P6SM SCT200
Voir NOTAMs / SUP AIP / TFR affectant cet aéroport [VIEW]
Fréquences de communication: [VIEW]

Pistes:

Coordonnées de l'aéroport

Adresse: Fontana United States

Vue satellite de CA29